< < Back
Terminal Aerodrome Forecast


Current Version              Previous Versions:   1  2  3  4  5  6  7  8  9  

Terminal Aerodrome Forecast

009
FTUS42 KCHS 030254 AAC
TAFSAV
TAF AMD
KSAV 030254Z 0303/0324 VRB04KT P6SM VCSH SCT015 SCT040 BKN150
      TEMPO 0303/0307 5SM BR SCT006 BKN015
     FM030700 21006KT 6SM BR SCT006 SCT015 BKN150
      TEMPO 0307/0311 4SM BR BKN006 BKN012
     FM031300 24010KT P6SM VCSH SCT025 BKN050
     FM031600 24012G18KT 6SM -SHRA VCTS SCT025CB BKN050
     FM032100 24012KT P6SM VCTS SCT025CB SCT060 BKN150=



Latest METAR

149
SAUS80 KWBC 031600 CCA
MTRSAV
METAR KSAV 031553Z 27010KT 10SM FEW024 SCT029 BKN095 BKN250 29/20 A2989
RMK AO2 SLP121 T02890200


USA.gov is the U.S. government's official web portal to all federal, state and local government web resources and services.